sensor_id;sensor_type;location;lat;lon;timestamp;P1;durP1;ratioP1;P2;durP2;ratioP2
14778;SDS011;7481;53.750;10.570;2023-02-23T00:00:53;19.93;;;7.83;;
14778;SDS011;7481;53.750;10.570;2023-02-23T00:03:41;18.03;;;8.03;;
14778;SDS011;7481;53.750;10.570;2023-02-23T00:06:29;17.90;;;8.20;;
14778;SDS011;7481;53.750;10.570;2023-02-23T00:09:18;18.33;;;7.73;;
14778;SDS011;7481;53.750;10.570;2023-02-23T00:12:08;14.43;;;7.93;;
14778;SDS011;7481;53.750;10.570;2023-02-23T00:14:56;19.43;;;9.27;;
14778;SDS011;7481;53.750;10.570;2023-02-23T00:17:45;20.13;;;9.03;;
14778;SDS011;7481;53.750;10.570;2023-02-23T00:20:33;17.47;;;8.30;;
14778;SDS011;7481;53.750;10.570;2023-02-23T00:23:20;17.90;;;7.20;;
14778;SDS011;7481;53.750;10.570;2023-02-23T00:26:08;20.23;;;7.50;;
14778;SDS011;7481;53.750;10.570;2023-02-23T00:28:56;15.33;;;7.53;;
14778;SDS011;7481;53.750;10.570;2023-02-23T00:31:44;18.90;;;7.97;;
14778;SDS011;7481;53.750;10.570;2023-02-23T00:34:32;15.53;;;7.87;;
14778;SDS011;7481;53.750;10.570;2023-02-23T00:37:21;19.10;;;7.40;;
14778;SDS011;7481;53.750;10.570;2023-02-23T00:40:08;17.97;;;7.73;;
14778;SDS011;7481;53.750;10.570;2023-02-23T00:42:59;16.53;;;7.13;;
14778;SDS011;7481;53.750;10.570;2023-02-23T00:45:47;18.20;;;7.23;;
14778;SDS011;7481;53.750;10.570;2023-02-23T00:48:34;22.10;;;8.07;;
14778;SDS011;7481;53.750;10.570;2023-02-23T00:51:23;16.60;;;7.33;;
14778;SDS011;7481;53.750;10.570;2023-02-23T00:54:12;17.43;;;6.97;;
14778;SDS011;7481;53.750;10.570;2023-02-23T00:57:00;11.97;;;6.87;;
14778;SDS011;7481;53.750;10.570;2023-02-23T00:59:47;19.60;;;6.70;;
14778;SDS011;7481;53.750;10.570;2023-02-23T01:02:35;20.60;;;7.20;;
14778;SDS011;7481;53.750;10.570;2023-02-23T01:05:22;14.07;;;7.13;;
14778;SDS011;7481;53.750;10.570;2023-02-23T01:08:10;18.83;;;7.47;;
14778;SDS011;7481;53.750;10.570;2023-02-23T01:10:57;12.10;;;5.47;;
14778;SDS011;7481;53.750;10.570;2023-02-23T01:13:45;11.23;;;5.77;;
14778;SDS011;7481;53.750;10.570;2023-02-23T01:16:33;18.00;;;6.03;;
14778;SDS011;7481;53.750;10.570;2023-02-23T01:19:21;13.73;;;5.87;;
14778;SDS011;7481;53.750;10.570;2023-02-23T01:22:08;15.50;;;5.67;;
14778;SDS011;7481;53.750;10.570;2023-02-23T01:24:56;12.43;;;5.93;;
14778;SDS011;7481;53.750;10.570;2023-02-23T01:27:43;15.10;;;5.53;;
14778;SDS011;7481;53.750;10.570;2023-02-23T01:30:30;16.20;;;5.70;;
14778;SDS011;7481;53.750;10.570;2023-02-23T01:33:18;15.27;;;5.80;;
14778;SDS011;7481;53.750;10.570;2023-02-23T01:36:06;11.50;;;5.37;;
14778;SDS011;7481;53.750;10.570;2023-02-23T01:38:53;17.57;;;5.83;;
14778;SDS011;7481;53.750;10.570;2023-02-23T01:41:42;19.63;;;5.40;;
14778;SDS011;7481;53.750;10.570;2023-02-23T01:47:17;16.23;;;5.53;;
14778;SDS011;7481;53.750;10.570;2023-02-23T01:50:05;11.80;;;5.23;;
14778;SDS011;7481;53.750;10.570;2023-02-23T01:52:53;14.77;;;5.87;;
14778;SDS011;7481;53.750;10.570;2023-02-23T01:55:42;17.80;;;6.07;;
14778;SDS011;7481;53.750;10.570;2023-02-23T01:58:30;11.43;;;5.60;;
14778;SDS011;7481;53.750;10.570;2023-02-23T02:01:18;16.53;;;5.57;;
14778;SDS011;7481;53.750;10.570;2023-02-23T02:04:06;16.40;;;6.20;;
14778;SDS011;7481;53.750;10.570;2023-02-23T02:06:54;14.13;;;5.43;;
14778;SDS011;7481;53.750;10.570;2023-02-23T02:09:42;14.13;;;5.33;;
14778;SDS011;7481;53.750;10.570;2023-02-23T02:12:51;15.03;;;5.97;;
14778;SDS011;7481;53.750;10.570;2023-02-23T02:15:44;14.27;;;5.63;;
14778;SDS011;7481;53.750;10.570;2023-02-23T02:18:57;12.53;;;5.03;;
14778;SDS011;7481;53.750;10.570;2023-02-23T02:27:47;14.50;;;6.30;;
14778;SDS011;7481;53.750;10.570;2023-02-23T02:39:35;14.70;;;6.20;;
14778;SDS011;7481;53.750;10.570;2023-02-23T02:42:28;14.37;;;6.53;;
14778;SDS011;7481;53.750;10.570;2023-02-23T02:45:29;15.77;;;6.53;;
14778;SDS011;7481;53.750;10.570;2023-02-23T02:48:22;23.13;;;5.93;;
14778;SDS011;7481;53.750;10.570;2023-02-23T02:51:13;16.80;;;6.47;;
14778;SDS011;7481;53.750;10.570;2023-02-23T02:54:08;14.67;;;5.77;;
14778;SDS011;7481;53.750;10.570;2023-02-23T02:56:58;16.17;;;5.93;;
14778;SDS011;7481;53.750;10.570;2023-02-23T02:59:48;16.30;;;6.40;;
14778;SDS011;7481;53.750;10.570;2023-02-23T03:02:54;15.40;;;5.43;;
14778;SDS011;7481;53.750;10.570;2023-02-23T03:06:01;15.10;;;6.17;;
14778;SDS011;7481;53.750;10.570;2023-02-23T03:12:20;12.83;;;5.57;;
14778;SDS011;7481;53.750;10.570;2023-02-23T03:15:41;16.53;;;6.13;;
14778;SDS011;7481;53.750;10.570;2023-02-23T03:22:27;20.97;;;7.13;;
14778;SDS011;7481;53.750;10.570;2023-02-23T03:25:41;11.83;;;6.30;;
14778;SDS011;7481;53.750;10.570;2023-02-23T03:29:13;18.77;;;6.27;;
14778;SDS011;7481;53.750;10.570;2023-02-23T03:32:17;16.97;;;5.60;;
14778;SDS011;7481;53.750;10.570;2023-02-23T03:35:26;13.33;;;5.23;;
14778;SDS011;7481;53.750;10.570;2023-02-23T03:38:45;14.50;;;5.07;;
14778;SDS011;7481;53.750;10.570;2023-02-23T03:41:55;17.83;;;5.23;;
14778;SDS011;7481;53.750;10.570;2023-02-23T03:45:04;14.87;;;5.20;;
14778;SDS011;7481;53.750;10.570;2023-02-23T03:48:11;14.27;;;5.83;;
14778;SDS011;7481;53.750;10.570;2023-02-23T03:51:18;16.03;;;5.23;;
14778;SDS011;7481;53.750;10.570;2023-02-23T03:54:30;14.60;;;6.40;;
14778;SDS011;7481;53.750;10.570;2023-02-23T03:57:37;18.40;;;5.27;;
14778;SDS011;7481;53.750;10.570;2023-02-23T04:00:46;12.17;;;5.10;;
14778;SDS011;7481;53.750;10.570;2023-02-23T04:03:53;13.37;;;5.47;;
14778;SDS011;7481;53.750;10.570;2023-02-23T04:07:01;17.53;;;5.50;;
14778;SDS011;7481;53.750;10.570;2023-02-23T04:10:08;15.23;;;5.70;;
14778;SDS011;7481;53.750;10.570;2023-02-23T04:13:16;16.60;;;5.13;;
14778;SDS011;7481;53.750;10.570;2023-02-23T04:16:06;13.77;;;5.03;;
14778;SDS011;7481;53.750;10.570;2023-02-23T04:18:53;17.90;;;5.60;;
14778;SDS011;7481;53.750;10.570;2023-02-23T04:21:41;18.07;;;5.73;;
14778;SDS011;7481;53.750;10.570;2023-02-23T04:24:28;14.70;;;6.83;;
14778;SDS011;7481;53.750;10.570;2023-02-23T04:27:16;15.57;;;6.83;;
14778;SDS011;7481;53.750;10.570;2023-02-23T04:30:04;18.23;;;6.57;;
14778;SDS011;7481;53.750;10.570;2023-02-23T04:32:52;16.13;;;5.93;;
14778;SDS011;7481;53.750;10.570;2023-02-23T04:35:39;14.30;;;6.13;;
14778;SDS011;7481;53.750;10.570;2023-02-23T04:38:26;15.80;;;5.90;;
14778;SDS011;7481;53.750;10.570;2023-02-23T04:41:14;15.60;;;5.97;;
14778;SDS011;7481;53.750;10.570;2023-02-23T04:44:01;18.53;;;7.43;;
14778;SDS011;7481;53.750;10.570;2023-02-23T04:46:50;22.40;;;6.67;;
14778;SDS011;7481;53.750;10.570;2023-02-23T04:49:37;20.77;;;7.67;;
14778;SDS011;7481;53.750;10.570;2023-02-23T04:52:25;19.20;;;7.33;;
14778;SDS011;7481;53.750;10.570;2023-02-23T04:55:18;24.73;;;7.77;;
14778;SDS011;7481;53.750;10.570;2023-02-23T04:58:05;28.80;;;10.60;;
14778;SDS011;7481;53.750;10.570;2023-02-23T05:00:53;25.67;;;8.60;;
14778;SDS011;7481;53.750;10.570;2023-02-23T05:03:40;20.80;;;8.13;;
14778;SDS011;7481;53.750;10.570;2023-02-23T05:06:28;20.97;;;7.53;;
14778;SDS011;7481;53.750;10.570;2023-02-23T05:09:16;30.20;;;8.87;;
14778;SDS011;7481;53.750;10.570;2023-02-23T05:12:03;23.57;;;8.30;;
14778;SDS011;7481;53.750;10.570;2023-02-23T05:14:51;23.43;;;8.80;;
14778;SDS011;7481;53.750;10.570;2023-02-23T05:17:38;22.13;;;8.03;;
14778;SDS011;7481;53.750;10.570;2023-02-23T05:20:29;26.90;;;8.83;;
14778;SDS011;7481;53.750;10.570;2023-02-23T05:23:17;29.30;;;8.93;;
14778;SDS011;7481;53.750;10.570;2023-02-23T05:26:05;29.33;;;9.33;;
14778;SDS011;7481;53.750;10.570;2023-02-23T05:28:53;26.13;;;9.17;;
14778;SDS011;7481;53.750;10.570;2023-02-23T05:31:42;25.30;;;9.03;;
14778;SDS011;7481;53.750;10.570;2023-02-23T05:34:30;26.03;;;9.47;;
14778;SDS011;7481;53.750;10.570;2023-02-23T05:37:17;26.13;;;9.30;;
14778;SDS011;7481;53.750;10.570;2023-02-23T05:40:05;35.33;;;10.17;;
14778;SDS011;7481;53.750;10.570;2023-02-23T05:42:57;29.87;;;11.83;;
14778;SDS011;7481;53.750;10.570;2023-02-23T05:45:44;40.77;;;11.20;;
14778;SDS011;7481;53.750;10.570;2023-02-23T05:48:32;36.30;;;10.77;;
14778;SDS011;7481;53.750;10.570;2023-02-23T05:51:19;38.70;;;9.53;;
14778;SDS011;7481;53.750;10.570;2023-02-23T05:54:07;31.83;;;10.67;;
14778;SDS011;7481;53.750;10.570;2023-02-23T05:56:54;37.03;;;10.90;;
14778;SDS011;7481;53.750;10.570;2023-02-23T05:59:42;30.60;;;9.47;;
14778;SDS011;7481;53.750;10.570;2023-02-23T06:02:29;33.10;;;10.60;;
14778;SDS011;7481;53.750;10.570;2023-02-23T06:05:17;33.73;;;11.67;;
14778;SDS011;7481;53.750;10.570;2023-02-23T06:08:04;31.13;;;10.40;;
14778;SDS011;7481;53.750;10.570;2023-02-23T06:10:51;35.67;;;10.67;;
14778;SDS011;7481;53.750;10.570;2023-02-23T06:13:39;34.23;;;12.07;;
14778;SDS011;7481;53.750;10.570;2023-02-23T06:16:26;40.67;;;10.87;;
14778;SDS011;7481;53.750;10.570;2023-02-23T06:19:14;40.80;;;11.90;;
14778;SDS011;7481;53.750;10.570;2023-02-23T06:22:01;42.80;;;11.73;;
14778;SDS011;7481;53.750;10.570;2023-02-23T06:24:49;36.33;;;11.17;;
14778;SDS011;7481;53.750;10.570;2023-02-23T06:27:36;39.40;;;13.47;;
14778;SDS011;7481;53.750;10.570;2023-02-23T06:30:24;46.53;;;12.10;;
14778;SDS011;7481;53.750;10.570;2023-02-23T06:33:12;42.57;;;12.40;;
14778;SDS011;7481;53.750;10.570;2023-02-23T06:35:59;41.63;;;11.60;;
14778;SDS011;7481;53.750;10.570;2023-02-23T06:38:47;50.20;;;12.27;;
14778;SDS011;7481;53.750;10.570;2023-02-23T06:41:34;47.20;;;12.27;;
14778;SDS011;7481;53.750;10.570;2023-02-23T06:44:21;47.17;;;13.20;;
14778;SDS011;7481;53.750;10.570;2023-02-23T06:47:09;53.40;;;13.37;;
14778;SDS011;7481;53.750;10.570;2023-02-23T06:49:56;53.50;;;13.20;;
14778;SDS011;7481;53.750;10.570;2023-02-23T06:52:45;47.37;;;12.83;;
14778;SDS011;7481;53.750;10.570;2023-02-23T06:55:34;58.70;;;14.57;;
14778;SDS011;7481;53.750;10.570;2023-02-23T06:58:21;58.37;;;15.73;;
14778;SDS011;7481;53.750;10.570;2023-02-23T07:01:08;79.47;;;18.60;;
14778;SDS011;7481;53.750;10.570;2023-02-23T07:03:57;64.03;;;23.20;;
14778;SDS011;7481;53.750;10.570;2023-02-23T07:06:45;72.87;;;23.27;;
14778;SDS011;7481;53.750;10.570;2023-02-23T07:09:32;64.57;;;18.73;;
14778;SDS011;7481;53.750;10.570;2023-02-23T07:12:19;83.27;;;25.33;;
14778;SDS011;7481;53.750;10.570;2023-02-23T07:15:07;83.07;;;23.83;;
14778;SDS011;7481;53.750;10.570;2023-02-23T07:17:55;71.50;;;19.33;;
14778;SDS011;7481;53.750;10.570;2023-02-23T07:20:42;64.20;;;17.37;;
14778;SDS011;7481;53.750;10.570;2023-02-23T07:23:30;60.30;;;16.63;;
14778;SDS011;7481;53.750;10.570;2023-02-23T07:26:18;63.83;;;17.40;;
14778;SDS011;7481;53.750;10.570;2023-02-23T07:29:05;70.67;;;17.20;;
14778;SDS011;7481;53.750;10.570;2023-02-23T07:31:53;68.50;;;19.07;;
14778;SDS011;7481;53.750;10.570;2023-02-23T07:34:40;81.03;;;18.07;;
14778;SDS011;7481;53.750;10.570;2023-02-23T07:37:28;81.77;;;17.90;;
14778;SDS011;7481;53.750;10.570;2023-02-23T07:40:15;80.10;;;20.17;;
14778;SDS011;7481;53.750;10.570;2023-02-23T07:43:03;69.67;;;18.00;;
14778;SDS011;7481;53.750;10.570;2023-02-23T07:45:50;81.73;;;20.43;;
14778;SDS011;7481;53.750;10.570;2023-02-23T07:48:38;71.30;;;18.90;;
14778;SDS011;7481;53.750;10.570;2023-02-23T07:51:27;59.97;;;18.23;;
14778;SDS011;7481;53.750;10.570;2023-02-23T07:54:15;88.23;;;20.87;;
14778;SDS011;7481;53.750;10.570;2023-02-23T07:57:02;69.53;;;18.60;;
14778;SDS011;7481;53.750;10.570;2023-02-23T07:59:49;73.63;;;20.53;;
14778;SDS011;7481;53.750;10.570;2023-02-23T08:02:37;77.33;;;20.97;;
14778;SDS011;7481;53.750;10.570;2023-02-23T08:05:24;76.93;;;20.83;;
14778;SDS011;7481;53.750;10.570;2023-02-23T08:08:12;67.37;;;20.87;;
14778;SDS011;7481;53.750;10.570;2023-02-23T08:11:03;77.83;;;22.10;;
14778;SDS011;7481;53.750;10.570;2023-02-23T08:13:51;86.17;;;20.70;;
14778;SDS011;7481;53.750;10.570;2023-02-23T08:16:39;77.73;;;21.77;;
14778;SDS011;7481;53.750;10.570;2023-02-23T08:19:26;83.50;;;21.30;;
14778;SDS011;7481;53.750;10.570;2023-02-23T08:22:14;69.97;;;21.47;;
14778;SDS011;7481;53.750;10.570;2023-02-23T08:25:01;76.97;;;22.77;;
14778;SDS011;7481;53.750;10.570;2023-02-23T08:27:51;77.80;;;22.70;;
14778;SDS011;7481;53.750;10.570;2023-02-23T08:30:39;74.70;;;22.90;;
14778;SDS011;7481;53.750;10.570;2023-02-23T08:33:27;84.10;;;22.63;;
14778;SDS011;7481;53.750;10.570;2023-02-23T08:36:14;78.80;;;21.77;;
14778;SDS011;7481;53.750;10.570;2023-02-23T08:39:02;83.33;;;24.97;;
14778;SDS011;7481;53.750;10.570;2023-02-23T08:41:51;83.77;;;23.87;;
14778;SDS011;7481;53.750;10.570;2023-02-23T08:44:40;84.53;;;24.23;;
14778;SDS011;7481;53.750;10.570;2023-02-23T08:47:28;80.63;;;23.80;;
14778;SDS011;7481;53.750;10.570;2023-02-23T08:50:15;90.63;;;26.40;;
14778;SDS011;7481;53.750;10.570;2023-02-23T08:53:03;91.07;;;26.00;;
14778;SDS011;7481;53.750;10.570;2023-02-23T08:56:09;97.37;;;25.10;;
14778;SDS011;7481;53.750;10.570;2023-02-23T08:58:56;85.07;;;25.57;;
14778;SDS011;7481;53.750;10.570;2023-02-23T09:01:44;91.17;;;28.30;;
14778;SDS011;7481;53.750;10.570;2023-02-23T09:04:31;99.30;;;28.50;;
14778;SDS011;7481;53.750;10.570;2023-02-23T09:07:21;90.43;;;30.37;;
14778;SDS011;7481;53.750;10.570;2023-02-23T09:10:09;86.10;;;27.63;;
14778;SDS011;7481;53.750;10.570;2023-02-23T09:12:57;93.87;;;28.00;;
14778;SDS011;7481;53.750;10.570;2023-02-23T09:15:45;88.60;;;28.93;;
14778;SDS011;7481;53.750;10.570;2023-02-23T09:18:33;91.43;;;31.60;;
14778;SDS011;7481;53.750;10.570;2023-02-23T09:21:21;100.83;;;32.47;;
14778;SDS011;7481;53.750;10.570;2023-02-23T09:24:10;94.23;;;32.93;;
14778;SDS011;7481;53.750;10.570;2023-02-23T09:26:57;91.10;;;31.13;;
14778;SDS011;7481;53.750;10.570;2023-02-23T09:29:45;82.40;;;29.53;;
14778;SDS011;7481;53.750;10.570;2023-02-23T09:32:32;77.03;;;28.50;;
14778;SDS011;7481;53.750;10.570;2023-02-23T09:35:21;78.77;;;29.37;;
14778;SDS011;7481;53.750;10.570;2023-02-23T09:38:08;74.67;;;27.67;;
14778;SDS011;7481;53.750;10.570;2023-02-23T09:40:55;69.53;;;26.83;;
14778;SDS011;7481;53.750;10.570;2023-02-23T09:43:50;64.40;;;27.17;;
14778;SDS011;7481;53.750;10.570;2023-02-23T09:46:45;56.47;;;24.13;;
14778;SDS011;7481;53.750;10.570;2023-02-23T09:49:36;58.67;;;24.47;;
14778;SDS011;7481;53.750;10.570;2023-02-23T09:52:27;58.37;;;25.23;;
14778;SDS011;7481;53.750;10.570;2023-02-23T09:55:18;51.60;;;23.27;;
14778;SDS011;7481;53.750;10.570;2023-02-23T09:58:07;54.83;;;22.53;;
14778;SDS011;7481;53.750;10.570;2023-02-23T10:15:41;45.23;;;21.43;;
14778;SDS011;7481;53.750;10.570;2023-02-23T10:21:37;47.53;;;21.70;;
14778;SDS011;7481;53.750;10.570;2023-02-23T10:27:35;43.87;;;20.53;;
14778;SDS011;7481;53.750;10.570;2023-02-23T10:30:25;49.93;;;23.30;;
14778;SDS011;7481;53.750;10.570;2023-02-23T10:36:10;55.53;;;25.80;;
14778;SDS011;7481;53.750;10.570;2023-02-23T10:38:59;71.10;;;28.23;;
14778;SDS011;7481;53.750;10.570;2023-02-23T10:41:47;61.93;;;28.67;;
14778;SDS011;7481;53.750;10.570;2023-02-23T10:44:34;75.00;;;29.47;;
14778;SDS011;7481;53.750;10.570;2023-02-23T10:47:23;70.70;;;29.47;;
14778;SDS011;7481;53.750;10.570;2023-02-23T10:50:12;70.93;;;28.73;;
14778;SDS011;7481;53.750;10.570;2023-02-23T10:53:03;73.43;;;28.90;;
14778;SDS011;7481;53.750;10.570;2023-02-23T10:56:00;80.50;;;31.33;;
14778;SDS011;7481;53.750;10.570;2023-02-23T10:58:49;77.30;;;31.30;;
14778;SDS011;7481;53.750;10.570;2023-02-23T11:01:40;82.67;;;32.27;;
14778;SDS011;7481;53.750;10.570;2023-02-23T11:04:54;95.40;;;33.83;;
14778;SDS011;7481;53.750;10.570;2023-02-23T11:07:42;94.90;;;35.73;;
14778;SDS011;7481;53.750;10.570;2023-02-23T11:10:30;93.37;;;32.83;;
14778;SDS011;7481;53.750;10.570;2023-02-23T11:13:21;106.20;;;33.50;;
14778;SDS011;7481;53.750;10.570;2023-02-23T11:16:10;104.17;;;34.27;;
14778;SDS011;7481;53.750;10.570;2023-02-23T11:19:00;101.13;;;35.07;;
14778;SDS011;7481;53.750;10.570;2023-02-23T11:21:49;100.33;;;34.77;;
14778;SDS011;7481;53.750;10.570;2023-02-23T11:24:38;94.27;;;34.20;;
14778;SDS011;7481;53.750;10.570;2023-02-23T11:27:27;90.07;;;34.67;;
14778;SDS011;7481;53.750;10.570;2023-02-23T11:30:15;104.87;;;35.13;;
14778;SDS011;7481;53.750;10.570;2023-02-23T11:33:03;99.47;;;35.17;;
14778;SDS011;7481;53.750;10.570;2023-02-23T11:35:58;92.10;;;33.47;;
14778;SDS011;7481;53.750;10.570;2023-02-23T11:38:46;105.00;;;35.60;;
14778;SDS011;7481;53.750;10.570;2023-02-23T11:41:42;106.27;;;35.77;;
14778;SDS011;7481;53.750;10.570;2023-02-23T11:44:30;107.77;;;37.17;;
14778;SDS011;7481;53.750;10.570;2023-02-23T11:47:20;103.47;;;35.23;;
14778;SDS011;7481;53.750;10.570;2023-02-23T11:50:09;97.67;;;33.30;;
14778;SDS011;7481;53.750;10.570;2023-02-23T11:53:14;89.90;;;32.93;;
14778;SDS011;7481;53.750;10.570;2023-02-23T11:56:02;101.23;;;31.83;;
14778;SDS011;7481;53.750;10.570;2023-02-23T11:59:00;93.80;;;35.27;;
14778;SDS011;7481;53.750;10.570;2023-02-23T12:01:49;93.90;;;33.53;;
14778;SDS011;7481;53.750;10.570;2023-02-23T12:04:37;91.67;;;32.33;;
14778;SDS011;7481;53.750;10.570;2023-02-23T12:07:39;98.43;;;32.77;;
14778;SDS011;7481;53.750;10.570;2023-02-23T12:10:30;87.43;;;32.17;;
14778;SDS011;7481;53.750;10.570;2023-02-23T12:13:23;84.00;;;30.67;;
14778;SDS011;7481;53.750;10.570;2023-02-23T12:16:28;83.57;;;30.90;;
14778;SDS011;7481;53.750;10.570;2023-02-23T12:22:22;83.83;;;31.77;;
14778;SDS011;7481;53.750;10.570;2023-02-23T12:25:19;87.43;;;31.03;;
14778;SDS011;7481;53.750;10.570;2023-02-23T12:28:10;91.77;;;32.17;;
14778;SDS011;7481;53.750;10.570;2023-02-23T12:31:05;86.23;;;33.33;;
14778;SDS011;7481;53.750;10.570;2023-02-23T12:34:04;88.93;;;31.43;;
14778;SDS011;7481;53.750;10.570;2023-02-23T12:39:44;90.43;;;31.80;;
14778;SDS011;7481;53.750;10.570;2023-02-23T12:42:42;85.43;;;31.13;;
14778;SDS011;7481;53.750;10.570;2023-02-23T12:45:40;97.33;;;31.70;;
14778;SDS011;7481;53.750;10.570;2023-02-23T12:51:35;80.70;;;30.97;;
14778;SDS011;7481;53.750;10.570;2023-02-23T12:54:24;85.60;;;30.87;;
14778;SDS011;7481;53.750;10.570;2023-02-23T13:06:11;87.00;;;33.13;;
14778;SDS011;7481;53.750;10.570;2023-02-23T13:15:20;84.03;;;31.17;;
14778;SDS011;7481;53.750;10.570;2023-02-23T13:21:00;83.20;;;30.60;;
14778;SDS011;7481;53.750;10.570;2023-02-23T13:24:00;79.67;;;30.20;;
14778;SDS011;7481;53.750;10.570;2023-02-23T13:26:52;84.73;;;31.37;;
14778;SDS011;7481;53.750;10.570;2023-02-23T13:29:43;74.30;;;30.37;;
14778;SDS011;7481;53.750;10.570;2023-02-23T13:32:32;80.27;;;30.63;;
14778;SDS011;7481;53.750;10.570;2023-02-23T13:35:19;86.50;;;37.50;;
14778;SDS011;7481;53.750;10.570;2023-02-23T13:40:58;73.93;;;28.83;;
14778;SDS011;7481;53.750;10.570;2023-02-23T13:44:02;73.23;;;28.97;;
14778;SDS011;7481;53.750;10.570;2023-02-23T13:46:59;69.40;;;27.07;;
14778;SDS011;7481;53.750;10.570;2023-02-23T13:50:01;74.50;;;28.00;;
14778;SDS011;7481;53.750;10.570;2023-02-23T13:52:52;68.70;;;28.53;;
14778;SDS011;7481;53.750;10.570;2023-02-23T13:55:46;70.17;;;27.53;;
14778;SDS011;7481;53.750;10.570;2023-02-23T13:58:35;75.73;;;30.50;;
14778;SDS011;7481;53.750;10.570;2023-02-23T14:01:39;69.30;;;27.17;;
14778;SDS011;7481;53.750;10.570;2023-02-23T14:04:35;64.93;;;27.13;;
14778;SDS011;7481;53.750;10.570;2023-02-23T14:07:27;68.33;;;26.97;;
14778;SDS011;7481;53.750;10.570;2023-02-23T14:10:18;70.93;;;27.43;;
14778;SDS011;7481;53.750;10.570;2023-02-23T14:16:10;68.13;;;26.57;;
14778;SDS011;7481;53.750;10.570;2023-02-23T14:22:07;68.33;;;27.00;;
14778;SDS011;7481;53.750;10.570;2023-02-23T14:31:19;62.40;;;24.60;;
14778;SDS011;7481;53.750;10.570;2023-02-23T14:34:11;58.67;;;23.07;;
14778;SDS011;7481;53.750;10.570;2023-02-23T14:37:02;58.00;;;23.77;;
14778;SDS011;7481;53.750;10.570;2023-02-23T14:39:55;63.60;;;24.03;;
14778;SDS011;7481;53.750;10.570;2023-02-23T14:42:46;62.43;;;24.33;;
14778;SDS011;7481;53.750;10.570;2023-02-23T14:45:36;59.00;;;24.87;;
14778;SDS011;7481;53.750;10.570;2023-02-23T14:48:24;57.60;;;22.83;;
14778;SDS011;7481;53.750;10.570;2023-02-23T14:54:08;54.33;;;20.83;;
14778;SDS011;7481;53.750;10.570;2023-02-23T14:56:57;56.27;;;21.87;;
14778;SDS011;7481;53.750;10.570;2023-02-23T14:59:50;55.30;;;21.53;;
14778;SDS011;7481;53.750;10.570;2023-02-23T15:02:37;57.00;;;21.80;;
14778;SDS011;7481;53.750;10.570;2023-02-23T15:05:43;53.90;;;21.03;;
14778;SDS011;7481;53.750;10.570;2023-02-23T15:08:32;53.77;;;21.43;;
14778;SDS011;7481;53.750;10.570;2023-02-23T15:11:24;43.90;;;20.30;;
14778;SDS011;7481;53.750;10.570;2023-02-23T15:14:13;48.53;;;21.33;;
14778;SDS011;7481;53.750;10.570;2023-02-23T15:17:14;46.33;;;20.67;;
14778;SDS011;7481;53.750;10.570;2023-02-23T15:20:03;51.50;;;21.43;;
14778;SDS011;7481;53.750;10.570;2023-02-23T15:23:02;50.97;;;20.33;;
14778;SDS011;7481;53.750;10.570;2023-02-23T15:25:50;50.50;;;19.93;;
14778;SDS011;7481;53.750;10.570;2023-02-23T15:28:38;49.73;;;21.53;;
14778;SDS011;7481;53.750;10.570;2023-02-23T15:31:28;54.37;;;21.10;;
14778;SDS011;7481;53.750;10.570;2023-02-23T15:34:20;50.80;;;21.10;;
14778;SDS011;7481;53.750;10.570;2023-02-23T15:37:10;49.47;;;20.37;;
14778;SDS011;7481;53.750;10.570;2023-02-23T15:39:59;46.63;;;20.07;;
14778;SDS011;7481;53.750;10.570;2023-02-23T15:42:53;44.60;;;19.83;;
14778;SDS011;7481;53.750;10.570;2023-02-23T15:45:51;46.53;;;19.23;;
14778;SDS011;7481;53.750;10.570;2023-02-23T15:48:41;46.73;;;19.77;;
14778;SDS011;7481;53.750;10.570;2023-02-23T15:51:33;44.37;;;18.53;;
14778;SDS011;7481;53.750;10.570;2023-02-23T15:54:23;53.07;;;20.30;;
14778;SDS011;7481;53.750;10.570;2023-02-23T15:57:25;45.67;;;18.27;;
14778;SDS011;7481;53.750;10.570;2023-02-23T16:00:16;49.27;;;19.17;;
14778;SDS011;7481;53.750;10.570;2023-02-23T16:03:05;48.13;;;17.53;;
14778;SDS011;7481;53.750;10.570;2023-02-23T16:05:56;47.00;;;18.20;;
14778;SDS011;7481;53.750;10.570;2023-02-23T16:08:54;49.40;;;17.73;;
14778;SDS011;7481;53.750;10.570;2023-02-23T16:11:42;46.47;;;16.67;;
14778;SDS011;7481;53.750;10.570;2023-02-23T16:14:34;42.27;;;16.67;;
14778;SDS011;7481;53.750;10.570;2023-02-23T16:17:33;36.50;;;15.43;;
14778;SDS011;7481;53.750;10.570;2023-02-23T16:20:37;37.17;;;15.67;;
14778;SDS011;7481;53.750;10.570;2023-02-23T16:23:34;40.53;;;16.27;;
14778;SDS011;7481;53.750;10.570;2023-02-23T16:29:14;45.27;;;16.13;;
14778;SDS011;7481;53.750;10.570;2023-02-23T16:32:08;34.73;;;13.90;;
14778;SDS011;7481;53.750;10.570;2023-02-23T16:35:01;33.73;;;14.00;;
14778;SDS011;7481;53.750;10.570;2023-02-23T16:37:51;35.80;;;16.33;;
14778;SDS011;7481;53.750;10.570;2023-02-23T16:40:41;36.07;;;15.13;;
14778;SDS011;7481;53.750;10.570;2023-02-23T16:43:29;41.50;;;15.53;;
14778;SDS011;7481;53.750;10.570;2023-02-23T16:46:17;36.23;;;15.10;;
14778;SDS011;7481;53.750;10.570;2023-02-23T16:49:07;39.47;;;16.13;;
14778;SDS011;7481;53.750;10.570;2023-02-23T16:51:55;32.33;;;13.93;;
14778;SDS011;7481;53.750;10.570;2023-02-23T16:54:43;37.73;;;14.03;;
14778;SDS011;7481;53.750;10.570;2023-02-23T16:57:38;26.10;;;10.47;;
14778;SDS011;7481;53.750;10.570;2023-02-23T17:00:26;19.10;;;7.90;;
14778;SDS011;7481;53.750;10.570;2023-02-23T17:06:05;14.63;;;6.97;;
14778;SDS011;7481;53.750;10.570;2023-02-23T17:08:53;15.30;;;6.60;;
14778;SDS011;7481;53.750;10.570;2023-02-23T17:11:44;17.87;;;7.20;;
14778;SDS011;7481;53.750;10.570;2023-02-23T17:14:32;16.07;;;6.00;;
14778;SDS011;7481;53.750;10.570;2023-02-23T17:17:19;14.63;;;5.43;;
14778;SDS011;7481;53.750;10.570;2023-02-23T17:20:08;16.37;;;5.70;;
14778;SDS011;7481;53.750;10.570;2023-02-23T17:23:01;15.97;;;5.10;;
14778;SDS011;7481;53.750;10.570;2023-02-23T17:25:49;18.43;;;5.80;;
14778;SDS011;7481;53.750;10.570;2023-02-23T17:28:36;12.17;;;4.23;;
14778;SDS011;7481;53.750;10.570;2023-02-23T17:31:24;13.97;;;4.60;;
14778;SDS011;7481;53.750;10.570;2023-02-23T17:34:14;20.70;;;4.95;;
14778;SDS011;7481;53.750;10.570;2023-02-23T17:37:01;19.73;;;4.27;;
14778;SDS011;7481;53.750;10.570;2023-02-23T17:39:52;15.10;;;3.60;;
14778;SDS011;7481;53.750;10.570;2023-02-23T17:42:40;15.20;;;3.83;;
14778;SDS011;7481;53.750;10.570;2023-02-23T17:45:27;15.53;;;3.87;;
14778;SDS011;7481;53.750;10.570;2023-02-23T17:48:15;12.83;;;3.70;;
14778;SDS011;7481;53.750;10.570;2023-02-23T17:51:04;14.70;;;4.53;;
14778;SDS011;7481;53.750;10.570;2023-02-23T17:53:53;21.13;;;4.40;;
14778;SDS011;7481;53.750;10.570;2023-02-23T17:56:41;21.17;;;4.03;;
14778;SDS011;7481;53.750;10.570;2023-02-23T17:59:28;15.47;;;3.60;;
14778;SDS011;7481;53.750;10.570;2023-02-23T18:02:17;17.77;;;3.63;;
14778;SDS011;7481;53.750;10.570;2023-02-23T18:05:06;12.37;;;4.03;;
14778;SDS011;7481;53.750;10.570;2023-02-23T18:07:54;13.90;;;3.63;;
14778;SDS011;7481;53.750;10.570;2023-02-23T18:10:41;20.77;;;4.97;;
14778;SDS011;7481;53.750;10.570;2023-02-23T18:13:29;13.97;;;3.80;;
14778;SDS011;7481;53.750;10.570;2023-02-23T18:16:19;12.87;;;3.50;;
14778;SDS011;7481;53.750;10.570;2023-02-23T18:19:08;19.17;;;5.30;;
14778;SDS011;7481;53.750;10.570;2023-02-23T18:21:55;22.30;;;4.33;;
14778;SDS011;7481;53.750;10.570;2023-02-23T18:24:43;15.33;;;3.97;;